sensor_id;sensor_type;location;lat;lon;timestamp;temperature;humidity
2973;DHT22;1496;51.404;7.232;2023-08-06T00:00:11;15.20;99.90
2973;DHT22;1496;51.404;7.232;2023-08-06T00:02:36;15.10;99.90
2973;DHT22;1496;51.404;7.232;2023-08-06T00:05:02;15.10;99.90
2973;DHT22;1496;51.404;7.232;2023-08-06T00:07:28;15.10;99.90
2973;DHT22;1496;51.404;7.232;2023-08-06T00:09:54;15.10;54.90
2973;DHT22;1496;51.404;7.232;2023-08-06T00:12:19;15.10;99.90
2973;DHT22;1496;51.404;7.232;2023-08-06T00:14:45;15.10;60.40
2973;DHT22;1496;51.404;7.232;2023-08-06T00:17:11;15.10;99.90
2973;DHT22;1496;51.404;7.232;2023-08-06T00:19:37;15.10;99.90
2973;DHT22;1496;51.404;7.232;2023-08-06T00:22:02;15.10;26.50
2973;DHT22;1496;51.404;7.232;2023-08-06T00:24:28;15.10;1.00
2973;DHT22;1496;51.404;7.232;2023-08-06T00:26:54;15.10;1.00
2973;DHT22;1496;51.404;7.232;2023-08-06T00:29:19;15.00;1.00
2973;DHT22;1496;51.404;7.232;2023-08-06T00:31:45;15.10;18.80
2973;DHT22;1496;51.404;7.232;2023-08-06T00:34:11;15.10;1.00
2973;DHT22;1496;51.404;7.232;2023-08-06T00:36:36;15.10;1.00
2973;DHT22;1496;51.404;7.232;2023-08-06T00:39:02;15.10;1.00
2973;DHT22;1496;51.404;7.232;2023-08-06T00:41:28;15.10;1.00
2973;DHT22;1496;51.404;7.232;2023-08-06T00:43:54;15.10;1.00
2973;DHT22;1496;51.404;7.232;2023-08-06T00:46:20;15.20;1.00
2973;DHT22;1496;51.404;7.232;2023-08-06T00:48:46;15.20;1.00
2973;DHT22;1496;51.404;7.232;2023-08-06T00:51:12;15.10;1.00
2973;DHT22;1496;51.404;7.232;2023-08-06T00:53:39;15.10;1.00
2973;DHT22;1496;51.404;7.232;2023-08-06T00:56:05;15.10;1.00
2973;DHT22;1496;51.404;7.232;2023-08-06T00:58:31;15.10;1.00
2973;DHT22;1496;51.404;7.232;2023-08-06T01:00:57;15.10;1.00
2973;DHT22;1496;51.404;7.232;2023-08-06T01:03:23;15.10;1.00
2973;DHT22;1496;51.404;7.232;2023-08-06T01:05:49;15.20;1.00
2973;DHT22;1496;51.404;7.232;2023-08-06T01:08:46;15.10;1.00
2973;DHT22;1496;51.404;7.232;2023-08-06T01:11:46;15.10;1.00
2973;DHT22;1496;51.404;7.232;2023-08-06T01:14:34;15.10;1.00
2973;DHT22;1496;51.404;7.232;2023-08-06T01:17:04;15.10;1.00
2973;DHT22;1496;51.404;7.232;2023-08-06T01:19:30;15.10;1.00
2973;DHT22;1496;51.404;7.232;2023-08-06T01:21:56;15.10;1.00
2973;DHT22;1496;51.404;7.232;2023-08-06T01:24:22;15.10;1.00
2973;DHT22;1496;51.404;7.232;2023-08-06T01:27:03;15.10;1.00
2973;DHT22;1496;51.404;7.232;2023-08-06T01:29:35;15.10;1.00
2973;DHT22;1496;51.404;7.232;2023-08-06T01:32:04;15.10;1.00
2973;DHT22;1496;51.404;7.232;2023-08-06T01:34:32;15.20;1.00
2973;DHT22;1496;51.404;7.232;2023-08-06T01:36:59;15.10;1.00
2973;DHT22;1496;51.404;7.232;2023-08-06T01:39:26;15.10;1.00
2973;DHT22;1496;51.404;7.232;2023-08-06T01:41:51;15.10;1.00
2973;DHT22;1496;51.404;7.232;2023-08-06T01:44:17;15.20;1.00
2973;DHT22;1496;51.404;7.232;2023-08-06T01:46:43;15.20;1.00
2973;DHT22;1496;51.404;7.232;2023-08-06T01:49:09;15.20;1.00
2973;DHT22;1496;51.404;7.232;2023-08-06T01:51:34;15.10;1.00
2973;DHT22;1496;51.404;7.232;2023-08-06T01:54:00;15.20;1.00
2973;DHT22;1496;51.404;7.232;2023-08-06T01:56:25;15.10;1.00
2973;DHT22;1496;51.404;7.232;2023-08-06T01:58:51;15.20;1.00
2973;DHT22;1496;51.404;7.232;2023-08-06T02:01:17;15.20;1.00
2973;DHT22;1496;51.404;7.232;2023-08-06T02:03:42;15.20;99.90
2973;DHT22;1496;51.404;7.232;2023-08-06T02:06:09;15.20;99.90
2973;DHT22;1496;51.404;7.232;2023-08-06T02:08:35;15.20;99.90
2973;DHT22;1496;51.404;7.232;2023-08-06T02:11:01;15.20;99.90
2973;DHT22;1496;51.404;7.232;2023-08-06T02:13:29;15.10;99.90
2973;DHT22;1496;51.404;7.232;2023-08-06T02:15:55;15.20;99.90
2973;DHT22;1496;51.404;7.232;2023-08-06T02:18:21;15.20;99.90
2973;DHT22;1496;51.404;7.232;2023-08-06T02:20:59;15.10;99.90
2973;DHT22;1496;51.404;7.232;2023-08-06T02:23:26;15.20;99.90
2973;DHT22;1496;51.404;7.232;2023-08-06T02:28:24;15.10;99.90
2973;DHT22;1496;51.404;7.232;2023-08-06T02:30:50;15.10;99.90
2973;DHT22;1496;51.404;7.232;2023-08-06T02:33:16;15.10;99.90
2973;DHT22;1496;51.404;7.232;2023-08-06T02:35:42;15.10;99.90
2973;DHT22;1496;51.404;7.232;2023-08-06T02:38:07;15.10;99.90
2973;DHT22;1496;51.404;7.232;2023-08-06T02:40:33;15.20;99.90
2973;DHT22;1496;51.404;7.232;2023-08-06T02:42:59;15.20;99.90
2973;DHT22;1496;51.404;7.232;2023-08-06T02:45:24;15.10;99.90
2973;DHT22;1496;51.404;7.232;2023-08-06T02:47:51;15.10;99.90
2973;DHT22;1496;51.404;7.232;2023-08-06T02:50:16;15.10;99.90
2973;DHT22;1496;51.404;7.232;2023-08-06T02:52:42;15.10;99.90
2973;DHT22;1496;51.404;7.232;2023-08-06T02:55:08;15.10;1.00
2973;DHT22;1496;51.404;7.232;2023-08-06T02:57:37;15.00;99.90
2973;DHT22;1496;51.404;7.232;2023-08-06T03:00:03;15.10;99.90
2973;DHT22;1496;51.404;7.232;2023-08-06T03:02:29;15.00;99.90
2973;DHT22;1496;51.404;7.232;2023-08-06T03:05:15;15.00;1.00
2973;DHT22;1496;51.404;7.232;2023-08-06T03:07:44;15.00;99.90
2973;DHT22;1496;51.404;7.232;2023-08-06T03:10:17;15.00;99.90
2973;DHT22;1496;51.404;7.232;2023-08-06T03:12:43;15.10;1.00
2973;DHT22;1496;51.404;7.232;2023-08-06T03:15:09;15.00;1.00
2973;DHT22;1496;51.404;7.232;2023-08-06T03:17:35;15.00;99.90
2973;DHT22;1496;51.404;7.232;2023-08-06T03:20:02;15.00;1.00
2973;DHT22;1496;51.404;7.232;2023-08-06T03:22:29;15.00;1.00
2973;DHT22;1496;51.404;7.232;2023-08-06T03:24:54;15.00;1.00
2973;DHT22;1496;51.404;7.232;2023-08-06T03:27:22;15.00;1.00
2973;DHT22;1496;51.404;7.232;2023-08-06T03:29:50;15.00;99.90
2973;DHT22;1496;51.404;7.232;2023-08-06T03:32:17;15.00;99.90
2973;DHT22;1496;51.404;7.232;2023-08-06T03:34:43;15.00;99.90
2973;DHT22;1496;51.404;7.232;2023-08-06T03:37:10;15.00;99.90
2973;DHT22;1496;51.404;7.232;2023-08-06T03:39:35;15.00;99.90
2973;DHT22;1496;51.404;7.232;2023-08-06T03:42:01;15.00;99.90
2973;DHT22;1496;51.404;7.232;2023-08-06T03:44:27;15.00;99.90
2973;DHT22;1496;51.404;7.232;2023-08-06T03:46:54;15.00;99.90
2973;DHT22;1496;51.404;7.232;2023-08-06T03:49:19;15.00;99.90
2973;DHT22;1496;51.404;7.232;2023-08-06T03:51:46;15.00;99.90
2973;DHT22;1496;51.404;7.232;2023-08-06T03:54:12;14.90;99.90
2973;DHT22;1496;51.404;7.232;2023-08-06T03:56:38;15.00;99.90
2973;DHT22;1496;51.404;7.232;2023-08-06T03:59:04;15.00;99.90
2973;DHT22;1496;51.404;7.232;2023-08-06T04:01:29;15.00;1.00
2973;DHT22;1496;51.404;7.232;2023-08-06T04:03:55;14.90;99.90
2973;DHT22;1496;51.404;7.232;2023-08-06T04:06:21;14.90;99.90
2973;DHT22;1496;51.404;7.232;2023-08-06T04:08:47;14.90;99.90
2973;DHT22;1496;51.404;7.232;2023-08-06T04:11:12;14.90;99.90
2973;DHT22;1496;51.404;7.232;2023-08-06T04:13:44;15.00;99.90
2973;DHT22;1496;51.404;7.232;2023-08-06T04:16:10;14.90;99.90
2973;DHT22;1496;51.404;7.232;2023-08-06T04:18:35;14.90;99.90
2973;DHT22;1496;51.404;7.232;2023-08-06T04:21:02;14.90;99.90
2973;DHT22;1496;51.404;7.232;2023-08-06T04:23:27;14.90;99.90
2973;DHT22;1496;51.404;7.232;2023-08-06T04:25:57;14.90;99.90
2973;DHT22;1496;51.404;7.232;2023-08-06T04:28:26;14.90;99.90
2973;DHT22;1496;51.404;7.232;2023-08-06T04:30:52;14.90;99.90
2973;DHT22;1496;51.404;7.232;2023-08-06T04:33:22;14.90;99.90
2973;DHT22;1496;51.404;7.232;2023-08-06T04:35:56;14.90;99.90
2973;DHT22;1496;51.404;7.232;2023-08-06T04:38:24;14.90;99.90
2973;DHT22;1496;51.404;7.232;2023-08-06T04:40:54;14.90;99.90
2973;DHT22;1496;51.404;7.232;2023-08-06T04:43:20;14.90;99.90
2973;DHT22;1496;51.404;7.232;2023-08-06T04:45:50;14.90;99.90
2973;DHT22;1496;51.404;7.232;2023-08-06T04:48:17;14.90;99.90
2973;DHT22;1496;51.404;7.232;2023-08-06T04:50:46;14.90;99.90
2973;DHT22;1496;51.404;7.232;2023-08-06T04:53:12;14.90;99.90
2973;DHT22;1496;51.404;7.232;2023-08-06T04:55:38;14.90;99.90
2973;DHT22;1496;51.404;7.232;2023-08-06T04:58:04;14.90;99.90
2973;DHT22;1496;51.404;7.232;2023-08-06T05:00:30;14.90;99.90
2973;DHT22;1496;51.404;7.232;2023-08-06T05:02:56;14.90;99.90
2973;DHT22;1496;51.404;7.232;2023-08-06T05:05:21;14.90;99.90
2973;DHT22;1496;51.404;7.232;2023-08-06T05:07:48;14.90;99.90
2973;DHT22;1496;51.404;7.232;2023-08-06T05:10:14;14.90;99.90
2973;DHT22;1496;51.404;7.232;2023-08-06T05:12:40;14.90;99.90
2973;DHT22;1496;51.404;7.232;2023-08-06T05:15:06;14.90;99.90
2973;DHT22;1496;51.404;7.232;2023-08-06T05:17:32;14.90;99.90
2973;DHT22;1496;51.404;7.232;2023-08-06T05:19:58;14.90;99.90
2973;DHT22;1496;51.404;7.232;2023-08-06T05:22:23;14.90;1.00
2973;DHT22;1496;51.404;7.232;2023-08-06T05:24:49;15.00;99.90
2973;DHT22;1496;51.404;7.232;2023-08-06T05:27:14;15.00;1.00
2973;DHT22;1496;51.404;7.232;2023-08-06T05:29:40;15.10;1.00
2973;DHT22;1496;51.404;7.232;2023-08-06T05:32:06;15.10;99.90
2973;DHT22;1496;51.404;7.232;2023-08-06T05:34:32;15.10;1.00
2973;DHT22;1496;51.404;7.232;2023-08-06T05:36:58;15.10;99.90
2973;DHT22;1496;51.404;7.232;2023-08-06T05:39:23;15.10;99.90
2973;DHT22;1496;51.404;7.232;2023-08-06T05:41:49;15.20;99.90
2973;DHT22;1496;51.404;7.232;2023-08-06T05:44:15;15.20;99.90
2973;DHT22;1496;51.404;7.232;2023-08-06T05:46:41;15.20;99.90
2973;DHT22;1496;51.404;7.232;2023-08-06T05:49:06;15.30;99.90
2973;DHT22;1496;51.404;7.232;2023-08-06T05:51:32;15.30;99.90
2973;DHT22;1496;51.404;7.232;2023-08-06T05:53:58;15.40;99.90
2973;DHT22;1496;51.404;7.232;2023-08-06T05:56:23;15.40;99.90
2973;DHT22;1496;51.404;7.232;2023-08-06T05:58:49;15.30;99.90
2973;DHT22;1496;51.404;7.232;2023-08-06T06:01:18;15.40;99.90
2973;DHT22;1496;51.404;7.232;2023-08-06T06:03:44;15.50;99.90
2973;DHT22;1496;51.404;7.232;2023-08-06T06:06:09;15.50;99.90
2973;DHT22;1496;51.404;7.232;2023-08-06T06:08:35;15.50;99.90
2973;DHT22;1496;51.404;7.232;2023-08-06T06:11:00;15.50;99.90
2973;DHT22;1496;51.404;7.232;2023-08-06T06:13:26;15.50;99.90
2973;DHT22;1496;51.404;7.232;2023-08-06T06:15:54;15.60;99.90
2973;DHT22;1496;51.404;7.232;2023-08-06T06:18:21;15.60;99.90
2973;DHT22;1496;51.404;7.232;2023-08-06T06:20:47;15.70;99.90
2973;DHT22;1496;51.404;7.232;2023-08-06T06:23:12;15.80;99.90
2973;DHT22;1496;51.404;7.232;2023-08-06T06:25:42;15.80;99.90
2973;DHT22;1496;51.404;7.232;2023-08-06T06:28:09;15.80;99.90
2973;DHT22;1496;51.404;7.232;2023-08-06T06:30:34;15.90;99.90
2973;DHT22;1496;51.404;7.232;2023-08-06T06:33:00;16.00;99.90
2973;DHT22;1496;51.404;7.232;2023-08-06T06:35:25;16.00;99.90
2973;DHT22;1496;51.404;7.232;2023-08-06T06:37:51;16.10;99.90
2973;DHT22;1496;51.404;7.232;2023-08-06T06:40:17;16.10;99.90
2973;DHT22;1496;51.404;7.232;2023-08-06T06:42:43;16.10;99.90
2973;DHT22;1496;51.404;7.232;2023-08-06T06:45:09;16.20;99.90
2973;DHT22;1496;51.404;7.232;2023-08-06T06:47:35;16.20;99.90
2973;DHT22;1496;51.404;7.232;2023-08-06T06:50:00;16.20;99.90
2973;DHT22;1496;51.404;7.232;2023-08-06T06:52:26;16.30;99.90
2973;DHT22;1496;51.404;7.232;2023-08-06T06:54:52;16.30;99.90
2973;DHT22;1496;51.404;7.232;2023-08-06T06:57:17;16.30;99.90
2973;DHT22;1496;51.404;7.232;2023-08-06T06:59:43;16.40;99.90
2973;DHT22;1496;51.404;7.232;2023-08-06T07:02:08;16.40;99.90
2973;DHT22;1496;51.404;7.232;2023-08-06T07:04:34;16.30;99.90
2973;DHT22;1496;51.404;7.232;2023-08-06T07:07:00;16.40;99.90
2973;DHT22;1496;51.404;7.232;2023-08-06T07:09:26;16.40;99.90
2973;DHT22;1496;51.404;7.232;2023-08-06T07:11:52;16.50;99.90
2973;DHT22;1496;51.404;7.232;2023-08-06T07:14:18;16.40;99.90
2973;DHT22;1496;51.404;7.232;2023-08-06T07:16:43;16.50;99.90
2973;DHT22;1496;51.404;7.232;2023-08-06T07:19:09;16.50;99.90
2973;DHT22;1496;51.404;7.232;2023-08-06T07:21:34;16.60;99.90
2973;DHT22;1496;51.404;7.232;2023-08-06T07:24:00;16.70;99.90
2973;DHT22;1496;51.404;7.232;2023-08-06T07:26:26;16.70;99.90
2973;DHT22;1496;51.404;7.232;2023-08-06T07:28:51;16.70;99.90
2973;DHT22;1496;51.404;7.232;2023-08-06T07:31:17;16.80;99.90
2973;DHT22;1496;51.404;7.232;2023-08-06T07:33:43;16.90;99.90
2973;DHT22;1496;51.404;7.232;2023-08-06T07:36:13;16.90;99.90
2973;DHT22;1496;51.404;7.232;2023-08-06T07:38:40;17.00;99.90
2973;DHT22;1496;51.404;7.232;2023-08-06T07:41:06;16.90;99.90
2973;DHT22;1496;51.404;7.232;2023-08-06T07:43:31;16.90;99.90
2973;DHT22;1496;51.404;7.232;2023-08-06T07:45:58;16.90;99.90
2973;DHT22;1496;51.404;7.232;2023-08-06T07:48:26;16.90;99.90
2973;DHT22;1496;51.404;7.232;2023-08-06T07:50:53;17.00;99.90
2973;DHT22;1496;51.404;7.232;2023-08-06T07:53:21;17.00;99.90
2973;DHT22;1496;51.404;7.232;2023-08-06T07:55:54;17.00;99.90
2973;DHT22;1496;51.404;7.232;2023-08-06T07:58:20;17.00;99.90
2973;DHT22;1496;51.404;7.232;2023-08-06T08:00:47;17.00;99.90
2973;DHT22;1496;51.404;7.232;2023-08-06T08:03:13;16.90;99.90
2973;DHT22;1496;51.404;7.232;2023-08-06T08:05:40;16.90;99.90
2973;DHT22;1496;51.404;7.232;2023-08-06T08:08:06;16.80;99.90
2973;DHT22;1496;51.404;7.232;2023-08-06T08:10:32;16.90;99.90
2973;DHT22;1496;51.404;7.232;2023-08-06T08:12:58;16.90;99.90
2973;DHT22;1496;51.404;7.232;2023-08-06T08:15:25;16.90;99.90
2973;DHT22;1496;51.404;7.232;2023-08-06T08:17:53;16.90;99.90
2973;DHT22;1496;51.404;7.232;2023-08-06T08:20:19;17.00;99.90
2973;DHT22;1496;51.404;7.232;2023-08-06T08:22:45;16.90;99.90
2973;DHT22;1496;51.404;7.232;2023-08-06T08:25:10;16.80;99.90
2973;DHT22;1496;51.404;7.232;2023-08-06T08:27:36;16.90;99.90
2973;DHT22;1496;51.404;7.232;2023-08-06T08:30:01;16.90;99.90
2973;DHT22;1496;51.404;7.232;2023-08-06T08:32:27;16.90;99.90
2973;DHT22;1496;51.404;7.232;2023-08-06T08:34:53;16.90;99.90
2973;DHT22;1496;51.404;7.232;2023-08-06T08:37:19;16.80;99.90
2973;DHT22;1496;51.404;7.232;2023-08-06T08:39:44;16.80;99.90
2973;DHT22;1496;51.404;7.232;2023-08-06T08:42:10;16.80;99.90
2973;DHT22;1496;51.404;7.232;2023-08-06T08:44:36;16.80;99.90
2973;DHT22;1496;51.404;7.232;2023-08-06T08:47:06;16.80;99.90
2973;DHT22;1496;51.404;7.232;2023-08-06T08:49:34;16.90;99.90
2973;DHT22;1496;51.404;7.232;2023-08-06T08:52:02;16.90;99.90
2973;DHT22;1496;51.404;7.232;2023-08-06T08:54:29;16.90;99.90
2973;DHT22;1496;51.404;7.232;2023-08-06T08:56:59;17.00;99.90
2973;DHT22;1496;51.404;7.232;2023-08-06T08:59:26;17.10;99.90
2973;DHT22;1496;51.404;7.232;2023-08-06T09:01:52;17.20;99.90
2973;DHT22;1496;51.404;7.232;2023-08-06T09:04:19;17.20;99.90
2973;DHT22;1496;51.404;7.232;2023-08-06T09:06:48;17.10;99.90
2973;DHT22;1496;51.404;7.232;2023-08-06T09:09:19;17.10;99.90
2973;DHT22;1496;51.404;7.232;2023-08-06T09:11:48;17.30;99.90
2973;DHT22;1496;51.404;7.232;2023-08-06T09:14:16;17.20;99.90
2973;DHT22;1496;51.404;7.232;2023-08-06T09:16:43;17.20;99.90
2973;DHT22;1496;51.404;7.232;2023-08-06T09:19:13;17.30;99.90
2973;DHT22;1496;51.404;7.232;2023-08-06T09:21:41;17.20;99.90
2973;DHT22;1496;51.404;7.232;2023-08-06T09:24:11;17.20;99.90
2973;DHT22;1496;51.404;7.232;2023-08-06T09:26:41;17.30;99.90
2973;DHT22;1496;51.404;7.232;2023-08-06T09:29:08;17.40;99.90
2973;DHT22;1496;51.404;7.232;2023-08-06T09:31:46;17.30;99.90
2973;DHT22;1496;51.404;7.232;2023-08-06T09:34:15;17.40;99.90
2973;DHT22;1496;51.404;7.232;2023-08-06T09:36:48;17.50;99.90
2973;DHT22;1496;51.404;7.232;2023-08-06T09:39:15;17.50;99.90
2973;DHT22;1496;51.404;7.232;2023-08-06T09:41:42;17.50;99.90
2973;DHT22;1496;51.404;7.232;2023-08-06T09:44:21;17.70;99.90
2973;DHT22;1496;51.404;7.232;2023-08-06T09:46:50;18.00;99.90
2973;DHT22;1496;51.404;7.232;2023-08-06T09:49:17;18.00;99.90
2973;DHT22;1496;51.404;7.232;2023-08-06T09:51:46;17.90;99.90
2973;DHT22;1496;51.404;7.232;2023-08-06T09:54:16;17.90;99.90
2973;DHT22;1496;51.404;7.232;2023-08-06T09:56:46;18.00;99.90
2973;DHT22;1496;51.404;7.232;2023-08-06T09:59:12;18.10;99.90
2973;DHT22;1496;51.404;7.232;2023-08-06T10:01:38;18.00;99.90
2973;DHT22;1496;51.404;7.232;2023-08-06T10:04:06;18.10;99.90
2973;DHT22;1496;51.404;7.232;2023-08-06T10:06:38;18.20;99.90
2973;DHT22;1496;51.404;7.232;2023-08-06T10:09:07;18.10;99.90
2973;DHT22;1496;51.404;7.232;2023-08-06T10:11:36;18.20;99.90
2973;DHT22;1496;51.404;7.232;2023-08-06T10:14:18;18.10;99.90
2973;DHT22;1496;51.404;7.232;2023-08-06T10:16:47;18.10;99.90
2973;DHT22;1496;51.404;7.232;2023-08-06T10:19:15;18.30;99.90
2973;DHT22;1496;51.404;7.232;2023-08-06T10:21:42;18.20;99.90
2973;DHT22;1496;51.404;7.232;2023-08-06T10:24:27;18.00;99.90
2973;DHT22;1496;51.404;7.232;2023-08-06T10:26:58;17.90;99.90
2973;DHT22;1496;51.404;7.232;2023-08-06T10:29:37;17.90;99.90
2973;DHT22;1496;51.404;7.232;2023-08-06T10:32:03;18.10;99.90
2973;DHT22;1496;51.404;7.232;2023-08-06T10:34:58;18.30;99.90
2973;DHT22;1496;51.404;7.232;2023-08-06T10:37:35;18.20;99.90
2973;DHT22;1496;51.404;7.232;2023-08-06T10:40:01;18.10;99.90
2973;DHT22;1496;51.404;7.232;2023-08-06T10:42:28;18.20;99.90
2973;DHT22;1496;51.404;7.232;2023-08-06T10:45:15;18.20;99.90
2973;DHT22;1496;51.404;7.232;2023-08-06T10:47:45;18.10;99.90
2973;DHT22;1496;51.404;7.232;2023-08-06T10:50:12;18.30;99.90
2973;DHT22;1496;51.404;7.232;2023-08-06T10:52:39;18.40;99.90
2973;DHT22;1496;51.404;7.232;2023-08-06T10:55:05;18.50;99.90
2973;DHT22;1496;51.404;7.232;2023-08-06T10:57:31;18.40;99.90
2973;DHT22;1496;51.404;7.232;2023-08-06T10:59:57;18.50;99.90
2973;DHT22;1496;51.404;7.232;2023-08-06T11:02:23;18.50;99.90
2973;DHT22;1496;51.404;7.232;2023-08-06T11:04:48;18.50;99.90
2973;DHT22;1496;51.404;7.232;2023-08-06T11:07:14;18.60;99.90
2973;DHT22;1496;51.404;7.232;2023-08-06T11:09:40;18.50;99.90
2973;DHT22;1496;51.404;7.232;2023-08-06T11:12:18;18.60;99.90
2973;DHT22;1496;51.404;7.232;2023-08-06T11:14:50;18.60;99.90
2973;DHT22;1496;51.404;7.232;2023-08-06T11:17:15;18.70;99.90
2973;DHT22;1496;51.404;7.232;2023-08-06T11:19:42;18.80;99.90
2973;DHT22;1496;51.404;7.232;2023-08-06T11:22:08;18.80;99.90
2973;DHT22;1496;51.404;7.232;2023-08-06T11:24:34;18.70;99.90
2973;DHT22;1496;51.404;7.232;2023-08-06T11:27:00;18.70;99.90
2973;DHT22;1496;51.404;7.232;2023-08-06T11:29:26;18.70;99.90
2973;DHT22;1496;51.404;7.232;2023-08-06T11:31:52;18.40;99.90
2973;DHT22;1496;51.404;7.232;2023-08-06T11:34:17;18.30;99.90
2973;DHT22;1496;51.404;7.232;2023-08-06T11:36:43;17.80;99.90
2973;DHT22;1496;51.404;7.232;2023-08-06T11:39:09;17.80;99.90
2973;DHT22;1496;51.404;7.232;2023-08-06T11:41:36;17.80;99.90
2973;DHT22;1496;51.404;7.232;2023-08-06T11:44:05;17.80;99.90
2973;DHT22;1496;51.404;7.232;2023-08-06T11:46:50;17.70;99.90
2973;DHT22;1496;51.404;7.232;2023-08-06T11:49:17;17.60;99.90
2973;DHT22;1496;51.404;7.232;2023-08-06T11:51:49;17.50;99.90
2973;DHT22;1496;51.404;7.232;2023-08-06T11:54:15;17.30;99.90
2973;DHT22;1496;51.404;7.232;2023-08-06T11:56:42;17.00;99.90
2973;DHT22;1496;51.404;7.232;2023-08-06T11:59:08;16.60;99.90
2973;DHT22;1496;51.404;7.232;2023-08-06T12:01:34;16.50;99.90
2973;DHT22;1496;51.404;7.232;2023-08-06T12:04:00;16.20;99.90
2973;DHT22;1496;51.404;7.232;2023-08-06T12:06:29;16.20;99.90
2973;DHT22;1496;51.404;7.232;2023-08-06T12:08:55;16.10;99.90
2973;DHT22;1496;51.404;7.232;2023-08-06T12:11:23;15.90;99.90
2973;DHT22;1496;51.404;7.232;2023-08-06T12:13:52;15.50;1.00
2973;DHT22;1496;51.404;7.232;2023-08-06T12:16:17;15.40;1.00
2973;DHT22;1496;51.404;7.232;2023-08-06T12:18:44;15.30;1.00
2973;DHT22;1496;51.404;7.232;2023-08-06T12:21:10;15.40;1.00
2973;DHT22;1496;51.404;7.232;2023-08-06T12:23:36;15.30;1.00
2973;DHT22;1496;51.404;7.232;2023-08-06T12:26:02;15.20;1.00
2973;DHT22;1496;51.404;7.232;2023-08-06T12:28:27;15.20;1.00
2973;DHT22;1496;51.404;7.232;2023-08-06T12:30:53;15.30;1.00
2973;DHT22;1496;51.404;7.232;2023-08-06T12:33:20;15.20;1.00
2973;DHT22;1496;51.404;7.232;2023-08-06T12:35:46;15.20;53.00
2973;DHT22;1496;51.404;7.232;2023-08-06T12:38:11;15.10;34.60
2973;DHT22;1496;51.404;7.232;2023-08-06T12:40:39;15.20;99.90
2973;DHT22;1496;51.404;7.232;2023-08-06T12:43:05;15.20;99.90
2973;DHT22;1496;51.404;7.232;2023-08-06T12:45:31;15.20;99.90
2973;DHT22;1496;51.404;7.232;2023-08-06T12:47:56;15.00;99.90
2973;DHT22;1496;51.404;7.232;2023-08-06T12:50:22;15.10;99.90
2973;DHT22;1496;51.404;7.232;2023-08-06T12:52:48;15.00;99.90
2973;DHT22;1496;51.404;7.232;2023-08-06T12:55:13;15.00;99.90
2973;DHT22;1496;51.404;7.232;2023-08-06T12:57:39;15.00;99.90
2973;DHT22;1496;51.404;7.232;2023-08-06T13:00:05;15.00;99.90
2973;DHT22;1496;51.404;7.232;2023-08-06T13:02:31;15.00;99.90
2973;DHT22;1496;51.404;7.232;2023-08-06T13:04:56;14.90;99.90
2973;DHT22;1496;51.404;7.232;2023-08-06T13:07:23;15.00;1.00
2973;DHT22;1496;51.404;7.232;2023-08-06T13:09:49;14.90;1.00
2973;DHT22;1496;51.404;7.232;2023-08-06T13:12:15;14.80;89.60
2973;DHT22;1496;51.404;7.232;2023-08-06T13:14:40;14.90;99.90
2973;DHT22;1496;51.404;7.232;2023-08-06T13:17:06;14.90;99.90
2973;DHT22;1496;51.404;7.232;2023-08-06T13:19:32;14.80;1.00
2973;DHT22;1496;51.404;7.232;2023-08-06T13:22:00;14.80;53.10
2973;DHT22;1496;51.404;7.232;2023-08-06T13:24:30;14.80;99.90
2973;DHT22;1496;51.404;7.232;2023-08-06T13:26:56;14.80;1.00
2973;DHT22;1496;51.404;7.232;2023-08-06T13:29:22;14.80;1.00
2973;DHT22;1496;51.404;7.232;2023-08-06T13:31:47;14.80;99.90
2973;DHT22;1496;51.404;7.232;2023-08-06T13:34:13;14.90;99.90
2973;DHT22;1496;51.404;7.232;2023-08-06T13:36:38;14.90;99.90
2973;DHT22;1496;51.404;7.232;2023-08-06T13:39:04;14.80;99.90
2973;DHT22;1496;51.404;7.232;2023-08-06T13:41:31;14.80;99.90
2973;DHT22;1496;51.404;7.232;2023-08-06T13:43:56;14.80;99.90
2973;DHT22;1496;51.404;7.232;2023-08-06T13:46:22;14.90;99.90
2973;DHT22;1496;51.404;7.232;2023-08-06T13:48:48;14.90;99.90
2973;DHT22;1496;51.404;7.232;2023-08-06T13:51:16;14.90;99.90
2973;DHT22;1496;51.404;7.232;2023-08-06T13:53:42;14.90;99.90
2973;DHT22;1496;51.404;7.232;2023-08-06T13:56:08;14.90;99.90
2973;DHT22;1496;51.404;7.232;2023-08-06T13:58:40;14.90;99.90
2973;DHT22;1496;51.404;7.232;2023-08-06T14:01:05;15.00;99.90
2973;DHT22;1496;51.404;7.232;2023-08-06T14:03:31;14.90;99.90
2973;DHT22;1496;51.404;7.232;2023-08-06T14:05:57;15.10;99.90
2973;DHT22;1496;51.404;7.232;2023-08-06T14:08:26;15.00;99.90
2973;DHT22;1496;51.404;7.232;2023-08-06T14:10:52;14.90;99.90
2973;DHT22;1496;51.404;7.232;2023-08-06T14:13:18;14.90;99.90
2973;DHT22;1496;51.404;7.232;2023-08-06T14:15:44;14.90;99.90
2973;DHT22;1496;51.404;7.232;2023-08-06T14:18:12;14.90;99.90
2973;DHT22;1496;51.404;7.232;2023-08-06T14:20:38;14.90;99.90
2973;DHT22;1496;51.404;7.232;2023-08-06T14:23:04;14.90;99.90
2973;DHT22;1496;51.404;7.232;2023-08-06T14:25:29;14.80;99.90
2973;DHT22;1496;51.404;7.232;2023-08-06T14:27:55;14.80;99.90
2973;DHT22;1496;51.404;7.232;2023-08-06T14:30:21;14.70;99.90
2973;DHT22;1496;51.404;7.232;2023-08-06T14:32:46;14.80;99.90
2973;DHT22;1496;51.404;7.232;2023-08-06T14:35:12;14.60;99.90
2973;DHT22;1496;51.404;7.232;2023-08-06T14:37:38;14.70;99.90
2973;DHT22;1496;51.404;7.232;2023-08-06T14:40:05;14.70;99.90
2973;DHT22;1496;51.404;7.232;2023-08-06T14:42:31;14.60;99.90
2973;DHT22;1496;51.404;7.232;2023-08-06T14:44:57;14.70;99.90
2973;DHT22;1496;51.404;7.232;2023-08-06T14:47:23;14.60;99.90
2973;DHT22;1496;51.404;7.232;2023-08-06T14:49:48;14.70;99.90
2973;DHT22;1496;51.404;7.232;2023-08-06T14:52:15;14.60;99.90
2973;DHT22;1496;51.404;7.232;2023-08-06T14:54:40;14.60;99.90
2973;DHT22;1496;51.404;7.232;2023-08-06T14:57:06;14.60;99.90
2973;DHT22;1496;51.404;7.232;2023-08-06T14:59:32;14.60;99.90
2973;DHT22;1496;51.404;7.232;2023-08-06T15:01:58;14.50;99.90
2973;DHT22;1496;51.404;7.232;2023-08-06T15:04:24;14.60;99.90
2973;DHT22;1496;51.404;7.232;2023-08-06T15:06:49;14.60;99.90
2973;DHT22;1496;51.404;7.232;2023-08-06T15:09:15;14.50;99.90
2973;DHT22;1496;51.404;7.232;2023-08-06T15:11:41;14.60;99.90
2973;DHT22;1496;51.404;7.232;2023-08-06T15:14:06;14.50;99.90
2973;DHT22;1496;51.404;7.232;2023-08-06T15:16:33;14.60;99.90
2973;DHT22;1496;51.404;7.232;2023-08-06T15:19:00;14.60;99.90
2973;DHT22;1496;51.404;7.232;2023-08-06T15:21:26;14.70;99.90
2973;DHT22;1496;51.404;7.232;2023-08-06T15:23:52;14.70;99.90
2973;DHT22;1496;51.404;7.232;2023-08-06T15:26:19;14.70;99.90
2973;DHT22;1496;51.404;7.232;2023-08-06T15:28:46;14.80;99.90
2973;DHT22;1496;51.404;7.232;2023-08-06T15:31:11;14.80;99.90
2973;DHT22;1496;51.404;7.232;2023-08-06T15:33:37;14.80;99.90
2973;DHT22;1496;51.404;7.232;2023-08-06T15:36:03;14.70;99.90
2973;DHT22;1496;51.404;7.232;2023-08-06T15:38:29;14.70;99.90
2973;DHT22;1496;51.404;7.232;2023-08-06T15:40:54;14.70;99.90
2973;DHT22;1496;51.404;7.232;2023-08-06T15:43:20;14.70;99.90
2973;DHT22;1496;51.404;7.232;2023-08-06T15:45:46;14.70;99.90
2973;DHT22;1496;51.404;7.232;2023-08-06T15:48:11;14.70;99.90
2973;DHT22;1496;51.404;7.232;2023-08-06T15:50:37;14.60;99.90
2973;DHT22;1496;51.404;7.232;2023-08-06T15:53:04;14.50;99.90
2973;DHT22;1496;51.404;7.232;2023-08-06T15:55:30;14.50;99.90
2973;DHT22;1496;51.404;7.232;2023-08-06T15:57:57;14.50;99.90
2973;DHT22;1496;51.404;7.232;2023-08-06T16:00:23;14.50;99.90
2973;DHT22;1496;51.404;7.232;2023-08-06T16:02:49;14.50;99.90
2973;DHT22;1496;51.404;7.232;2023-08-06T16:05:14;14.50;99.90